createdAt,value
2023-01-08T00:00:46.238Z,0.00
2023-01-08T00:01:47.212Z,0.00
2023-01-08T00:02:48.020Z,0.00
2023-01-08T00:03:49.020Z,0.00
2023-01-08T00:04:49.357Z,0.00
2023-01-08T00:05:50.206Z,0.00
2023-01-08T00:06:51.070Z,0.00
2023-01-08T00:07:51.942Z,0.00
2023-01-08T00:08:52.782Z,0.00
2023-01-08T00:09:53.637Z,0.00
2023-01-08T00:10:54.490Z,0.00
2023-01-08T00:11:55.353Z,0.00
2023-01-08T00:12:56.219Z,0.00
2023-01-08T00:13:57.060Z,0.00
2023-01-08T00:14:57.915Z,0.00
2023-01-08T00:15:58.767Z,0.00
2023-01-08T00:16:59.997Z,0.00
2023-01-08T00:18:00.387Z,0.00
2023-01-08T00:19:01.240Z,0.00
2023-01-08T00:20:02.108Z,0.00
2023-01-08T00:21:02.983Z,0.00
2023-01-08T00:22:03.829Z,0.00
2023-01-08T00:23:04.677Z,0.00
2023-01-08T00:24:05.536Z,0.00
2023-01-08T00:25:06.384Z,0.00
2023-01-08T00:26:07.244Z,0.00
2023-01-08T00:27:08.099Z,0.00
2023-01-08T00:28:08.955Z,0.00
2023-01-08T00:29:09.844Z,0.00
2023-01-08T00:30:10.701Z,0.00
2023-01-08T00:31:11.631Z,0.00
2023-01-08T00:32:31.519Z,0.00
2023-01-08T00:33:14.279Z,0.00
2023-01-08T00:36:03.533Z,0.00
2023-01-08T00:37:04.405Z,0.00
2023-01-08T00:43:42.085Z,0.00
2023-01-08T00:44:42.931Z,0.00
2023-01-08T00:45:43.815Z,0.00
2023-01-08T00:46:44.640Z,0.00
2023-01-08T00:47:45.603Z,0.00
2023-01-08T00:48:46.711Z,0.00
2023-01-08T00:49:47.087Z,0.00
2023-01-08T00:50:47.926Z,0.00
2023-01-08T00:51:48.785Z,0.00
2023-01-08T00:52:49.660Z,0.00
2023-01-08T00:53:50.491Z,0.00
2023-01-08T00:54:51.352Z,0.00
2023-01-08T00:55:52.208Z,0.00
2023-01-08T00:56:53.057Z,0.00
2023-01-08T00:57:53.909Z,0.00
2023-01-08T00:58:54.776Z,0.00
2023-01-08T00:59:55.625Z,0.00
2023-01-08T01:00:56.546Z,0.00
2023-01-08T01:01:57.549Z,0.00
2023-01-08T01:02:58.068Z,0.00
2023-01-08T01:03:58.922Z,0.00
2023-01-08T01:04:59.707Z,0.00
2023-01-08T01:06:00.558Z,0.00
2023-01-08T01:07:01.411Z,0.00
2023-01-08T01:08:02.283Z,0.00
2023-01-08T01:09:03.105Z,0.00
2023-01-08T01:10:03.940Z,0.00
2023-01-08T01:11:04.792Z,0.00
2023-01-08T01:12:05.645Z,0.00
2023-01-08T01:16:53.410Z,0.00
2023-01-08T01:17:54.228Z,0.00
2023-01-08T01:24:23.443Z,0.00
2023-01-08T01:25:24.220Z,0.00
2023-01-08T01:26:25.080Z,0.00
2023-01-08T01:27:25.935Z,0.00
2023-01-08T01:28:26.781Z,0.00
2023-01-08T01:29:27.644Z,0.00
2023-01-08T01:30:28.506Z,0.00
2023-01-08T01:31:29.418Z,0.00
2023-01-08T01:32:30.305Z,0.00
2023-01-08T01:33:31.162Z,0.00
2023-01-08T01:34:32.025Z,0.00
2023-01-08T01:35:32.880Z,0.00
2023-01-08T01:36:33.729Z,0.00
2023-01-08T01:37:34.581Z,0.00
2023-01-08T01:38:35.516Z,0.00
2023-01-08T01:39:36.536Z,0.00
2023-01-08T01:40:37.312Z,0.00
2023-01-08T01:41:38.160Z,0.00
2023-01-08T01:42:39.014Z,0.00
2023-01-08T01:43:39.877Z,0.00
2023-01-08T01:44:40.730Z,0.00
2023-01-08T01:45:41.581Z,0.00
2023-01-08T01:46:42.430Z,0.00
2023-01-08T01:47:43.283Z,0.00
2023-01-08T01:48:44.141Z,0.00
2023-01-08T01:49:45.002Z,0.00
2023-01-08T01:50:45.860Z,0.00
2023-01-08T01:51:46.714Z,0.00
2023-01-08T01:52:47.568Z,0.00
2023-01-08T01:53:48.405Z,0.00
2023-01-08T01:54:49.409Z,0.00
2023-01-08T01:55:50.185Z,0.00
2023-01-08T01:56:51.037Z,0.00
2023-01-08T01:57:51.888Z,0.00
2023-01-08T01:58:52.760Z,0.00
2023-01-08T01:59:53.607Z,0.00
2023-01-08T02:00:54.503Z,0.00
2023-01-08T02:01:55.466Z,0.00
2023-01-08T02:02:55.841Z,0.00
2023-01-08T02:03:56.795Z,0.00
2023-01-08T02:04:57.604Z,0.00
2023-01-08T02:05:58.452Z,0.00
2023-01-08T02:06:59.315Z,0.00
2023-01-08T02:08:00.169Z,0.00
2023-01-08T02:09:01.020Z,0.00
2023-01-08T02:10:02.015Z,0.00
2023-01-08T02:11:02.815Z,0.00
2023-01-08T02:12:03.644Z,0.00
2023-01-08T02:13:04.496Z,0.00
2023-01-08T02:14:05.374Z,0.00
2023-01-08T02:15:06.239Z,0.00
2023-01-08T02:16:07.094Z,0.00
2023-01-08T02:17:07.942Z,0.00
2023-01-08T02:18:08.806Z,0.00
2023-01-08T02:19:09.652Z,0.00
2023-01-08T02:20:10.899Z,0.00
2023-01-08T02:21:11.254Z,0.00
2023-01-08T02:22:12.132Z,0.00
2023-01-08T02:23:12.978Z,0.00
2023-01-08T02:24:13.854Z,0.00
2023-01-08T02:25:15.063Z,0.00
2023-01-08T02:26:15.346Z,0.00
2023-01-08T02:27:16.212Z,0.00
2023-01-08T02:28:17.076Z,0.00
2023-01-08T02:29:17.926Z,0.00
2023-01-08T02:30:18.898Z,0.00
2023-01-08T02:31:19.833Z,0.00
2023-01-08T02:32:20.628Z,0.00
2023-01-08T02:33:21.481Z,0.00
2023-01-08T02:34:22.336Z,0.00
2023-01-08T02:35:23.199Z,0.00
2023-01-08T02:36:24.055Z,0.00
2023-01-08T02:37:24.903Z,0.00
2023-01-08T02:38:25.756Z,0.00
2023-01-08T02:39:26.609Z,0.00
2023-01-08T02:40:27.625Z,0.00
2023-01-08T02:41:28.402Z,0.00
2023-01-08T02:42:29.256Z,0.00
2023-01-08T02:43:30.110Z,0.00
2023-01-08T02:44:30.962Z,0.00
2023-01-08T02:45:31.825Z,0.00
2023-01-08T02:46:32.682Z,0.00
2023-01-08T02:47:33.535Z,0.00
2023-01-08T02:48:34.391Z,0.00
2023-01-08T02:49:35.241Z,0.00
2023-01-08T02:50:36.100Z,0.00
2023-01-08T02:51:36.966Z,0.00
2023-01-08T02:52:37.808Z,0.00
2023-01-08T02:53:38.661Z,0.00
2023-01-08T02:54:39.522Z,0.00
2023-01-08T02:55:40.539Z,0.00
2023-01-08T02:56:41.327Z,0.00
2023-01-08T02:57:42.171Z,0.00
2023-01-08T02:58:43.035Z,0.00
2023-01-08T02:59:43.872Z,0.00
2023-01-08T03:00:44.738Z,0.00
2023-01-08T03:01:45.848Z,0.00
2023-01-08T03:02:46.260Z,0.00
2023-01-08T03:07:26.111Z,0.00
2023-01-08T03:08:26.425Z,0.00
2023-01-08T03:11:37.793Z,0.00
2023-01-08T03:16:00.461Z,0.00
2023-01-08T03:17:01.372Z,0.00
2023-01-08T03:18:02.199Z,0.00
2023-01-08T03:19:03.021Z,0.00
2023-01-08T03:20:03.889Z,0.00
2023-01-08T03:21:04.742Z,0.00
2023-01-08T03:22:05.586Z,0.00
2023-01-08T03:23:06.438Z,0.00
2023-01-08T03:24:07.293Z,0.00
2023-01-08T03:25:08.158Z,0.00
2023-01-08T03:26:09.006Z,0.00
2023-01-08T03:27:09.978Z,0.00
2023-01-08T03:28:10.754Z,0.00
2023-01-08T03:29:11.618Z,0.00
2023-01-08T03:30:12.516Z,0.00
2023-01-08T03:31:13.475Z,0.00
2023-01-08T03:32:14.268Z,0.00
2023-01-08T03:33:15.125Z,0.00
2023-01-08T03:34:15.988Z,0.00
2023-01-08T03:35:17.028Z,0.00
2023-01-08T03:36:17.380Z,0.00
2023-01-08T03:37:18.228Z,0.00
2023-01-08T03:38:19.078Z,0.00
2023-01-08T03:39:19.943Z,0.00
2023-01-08T03:40:20.805Z,0.00
2023-01-08T03:41:21.657Z,0.00
2023-01-08T03:42:22.522Z,0.00
2023-01-08T03:43:23.353Z,0.00
2023-01-08T03:44:24.260Z,0.00
2023-01-08T03:45:25.064Z,0.00
2023-01-08T03:46:27.409Z,0.00
2023-01-08T03:47:26.415Z,0.00
2023-01-08T03:48:27.259Z,0.00
2023-01-08T03:49:28.114Z,0.00
2023-01-08T03:50:28.974Z,0.00
2023-01-08T03:51:44.500Z,0.00
2023-01-08T03:52:52.524Z,0.00
2023-01-08T03:55:21.115Z,0.00
2023-01-08T03:56:21.922Z,0.00
2023-01-08T03:59:14.442Z,0.00
2023-01-08T04:03:56.343Z,0.00
2023-01-08T04:04:57.155Z,0.00
2023-01-08T04:05:58.008Z,0.00
2023-01-08T04:06:58.863Z,0.00
2023-01-08T04:07:59.726Z,0.00
2023-01-08T04:09:00.582Z,0.00
2023-01-08T04:10:01.432Z,0.00
2023-01-08T04:11:02.291Z,0.00
2023-01-08T04:12:03.138Z,0.00
2023-01-08T04:13:04.004Z,0.00
2023-01-08T04:14:04.861Z,0.00
2023-01-08T04:15:05.832Z,0.00
2023-01-08T04:16:06.733Z,0.00
2023-01-08T04:17:07.556Z,0.00
2023-01-08T04:18:08.420Z,0.00
2023-01-08T04:19:09.295Z,0.00
2023-01-08T04:20:10.114Z,0.00
2023-01-08T04:21:10.979Z,0.00
2023-01-08T04:22:11.832Z,0.00
2023-01-08T04:23:12.695Z,0.00
2023-01-08T04:24:13.549Z,0.00
2023-01-08T04:25:14.414Z,0.00
2023-01-08T04:26:15.285Z,0.00
2023-01-08T04:27:16.119Z,0.00
2023-01-08T04:28:16.989Z,0.00
2023-01-08T04:29:17.841Z,0.00
2023-01-08T04:30:18.821Z,0.00
2023-01-08T04:31:19.704Z,0.00
2023-01-08T04:32:20.513Z,0.00
2023-01-08T04:33:21.414Z,0.00
2023-01-08T04:34:22.278Z,0.00
2023-01-08T04:35:23.124Z,0.00
2023-01-08T04:36:23.982Z,0.00
2023-01-08T04:37:24.832Z,0.00
2023-01-08T04:38:25.693Z,0.00
2023-01-08T04:39:26.546Z,0.00
2023-01-08T04:40:27.401Z,0.00
2023-01-08T04:41:28.257Z,0.00
2023-01-08T04:42:29.115Z,0.00
2023-01-08T04:43:29.981Z,0.00
2023-01-08T04:44:30.821Z,0.00
2023-01-08T04:45:31.792Z,0.00
2023-01-08T04:46:32.629Z,0.00
2023-01-08T04:47:33.455Z,0.00
2023-01-08T04:48:34.321Z,0.00
2023-01-08T04:49:35.187Z,0.00
2023-01-08T04:50:35.980Z,0.00
2023-01-08T04:51:36.829Z,0.00
2023-01-08T04:52:37.684Z,0.00
2023-01-08T04:53:38.548Z,0.00
2023-01-08T04:54:39.400Z,0.00
2023-01-08T04:55:40.259Z,0.00
2023-01-08T04:56:41.113Z,0.00
2023-01-08T04:57:41.954Z,0.00
2023-01-08T04:58:42.817Z,0.00
2023-01-08T04:59:43.691Z,0.00
2023-01-08T05:00:44.652Z,0.00
2023-01-08T05:01:45.566Z,0.00
2023-01-08T05:02:46.191Z,0.00
2023-01-08T05:03:46.596Z,0.00
2023-01-08T05:04:47.464Z,0.00
2023-01-08T05:05:49.931Z,0.00
2023-01-08T05:06:48.903Z,0.00
2023-01-08T05:07:49.742Z,0.00
2023-01-08T05:08:50.885Z,0.00
2023-01-08T05:09:51.248Z,0.00
2023-01-08T05:10:52.101Z,0.00
2023-01-08T05:11:52.953Z,0.00
2023-01-08T05:12:53.806Z,0.00
2023-01-08T05:13:54.668Z,0.00
2023-01-08T05:14:55.519Z,0.00
2023-01-08T05:15:56.532Z,0.00
2023-01-08T05:16:57.346Z,0.00
2023-01-08T05:17:58.197Z,0.00
2023-01-08T05:18:59.085Z,0.00
2023-01-08T05:19:59.936Z,0.00
2023-01-08T05:21:00.731Z,0.00
2023-01-08T05:22:01.582Z,0.00
2023-01-08T05:23:02.435Z,0.00
2023-01-08T05:24:03.308Z,0.00
2023-01-08T05:25:04.150Z,0.00
2023-01-08T05:26:05.014Z,0.00
2023-01-08T05:27:05.852Z,0.00
2023-01-08T05:28:06.707Z,0.00
2023-01-08T05:29:07.567Z,0.00
2023-01-08T05:30:08.424Z,0.00
2023-01-08T05:31:09.552Z,0.00
2023-01-08T05:32:09.863Z,0.00
2023-01-08T05:33:10.716Z,0.00
2023-01-08T05:34:11.904Z,0.00
2023-01-08T05:35:12.271Z,0.00
2023-01-08T05:36:13.056Z,0.00
2023-01-08T05:37:13.910Z,0.00
2023-01-08T05:38:14.980Z,0.00
2023-01-08T05:39:15.342Z,0.00
2023-01-08T05:40:16.210Z,0.00
2023-01-08T05:41:17.058Z,0.00
2023-01-08T05:42:17.907Z,0.00
2023-01-08T05:43:18.773Z,0.00
2023-01-08T05:44:19.890Z,0.00
2023-01-08T05:45:20.232Z,0.00
2023-01-08T05:46:21.235Z,0.00
2023-01-08T05:47:22.073Z,0.00
2023-01-08T05:48:22.937Z,0.00
2023-01-08T05:49:23.794Z,0.00
2023-01-08T05:50:24.663Z,0.00
2023-01-08T05:51:25.479Z,0.00
2023-01-08T05:52:26.010Z,0.00
2023-01-08T05:53:26.861Z,0.00
2023-01-08T05:54:27.725Z,0.00
2023-01-08T05:55:28.588Z,0.00
2023-01-08T05:56:29.434Z,0.00
2023-01-08T05:57:30.292Z,0.00
2023-01-08T05:58:31.154Z,0.00
2023-01-08T05:59:32.000Z,0.00
2023-01-08T06:00:32.876Z,0.00
2023-01-08T06:01:33.884Z,0.00
2023-01-08T06:02:34.731Z,0.00
2023-01-08T06:03:35.562Z,0.00
2023-01-08T06:04:36.502Z,0.00
2023-01-08T06:05:37.325Z,0.00
2023-01-08T06:06:38.125Z,0.00
2023-01-08T06:07:38.986Z,0.00
2023-01-08T06:08:39.825Z,0.00
2023-01-08T06:09:40.688Z,0.00
2023-01-08T06:10:41.540Z,0.00
2023-01-08T06:11:42.406Z,0.00
2023-01-08T06:12:43.263Z,0.00
2023-01-08T06:13:44.109Z,0.00
2023-01-08T06:14:44.970Z,0.00
2023-01-08T06:15:45.860Z,0.00
2023-01-08T06:16:46.799Z,0.00
2023-01-08T06:17:47.591Z,0.00
2023-01-08T06:18:48.452Z,0.00
2023-01-08T06:19:49.373Z,0.00
2023-01-08T06:20:50.250Z,0.00
2023-01-08T06:21:51.095Z,0.00
2023-01-08T06:22:51.952Z,0.00
2023-01-08T06:23:52.801Z,0.00
2023-01-08T06:24:53.875Z,0.00
2023-01-08T06:25:54.224Z,0.00
2023-01-08T06:26:55.080Z,0.00
2023-01-08T06:27:55.933Z,0.00
2023-01-08T06:28:56.788Z,0.00
2023-01-08T06:29:57.653Z,0.00
2023-01-08T06:30:58.563Z,0.00
2023-01-08T06:31:59.491Z,0.00
2023-01-08T06:33:00.268Z,0.00
2023-01-08T06:34:01.121Z,0.00
2023-01-08T06:35:02.029Z,0.00
2023-01-08T06:36:02.874Z,0.00
2023-01-08T06:37:03.693Z,0.00
2023-01-08T06:38:04.545Z,0.00
2023-01-08T06:39:05.469Z,0.00
2023-01-08T06:40:06.348Z,0.00
2023-01-08T06:41:07.198Z,0.00
2023-01-08T06:42:08.128Z,0.00
2023-01-08T06:43:08.986Z,0.00
2023-01-08T06:44:09.833Z,0.00
2023-01-08T06:45:10.697Z,0.00
2023-01-08T06:46:11.611Z,0.00
2023-01-08T06:47:12.536Z,0.00
2023-01-08T06:48:13.324Z,0.00
2023-01-08T06:49:14.182Z,0.00
2023-01-08T06:50:15.373Z,0.00
2023-01-08T06:51:15.747Z,0.00
2023-01-08T06:52:16.592Z,0.00
2023-01-08T06:53:17.471Z,0.00
2023-01-08T06:54:18.324Z,0.00
2023-01-08T06:55:19.189Z,0.00
2023-01-08T06:56:20.040Z,0.00
2023-01-08T06:57:20.899Z,0.00
2023-01-08T06:58:21.762Z,4.00
2023-01-08T06:59:22.622Z,4.00
2023-01-08T07:00:23.491Z,4.00
2023-01-08T07:01:24.492Z,4.00
2023-01-08T07:02:25.879Z,4.00
2023-01-08T07:03:26.364Z,4.00
2023-01-08T07:04:27.147Z,4.00
2023-01-08T07:05:28.129Z,4.00
2023-01-08T07:06:29.004Z,8.00
2023-01-08T07:07:29.813Z,4.00
2023-01-08T07:08:30.667Z,8.00
2023-01-08T07:09:31.520Z,12.00
2023-01-08T07:10:32.407Z,12.00
2023-01-08T07:11:33.243Z,12.00
2023-01-08T07:12:34.097Z,12.00
2023-01-08T07:13:34.944Z,16.00
2023-01-08T07:14:35.794Z,20.00
2023-01-08T07:15:36.750Z,20.00
2023-01-08T07:16:37.546Z,20.00
2023-01-08T07:17:38.589Z,20.00
2023-01-08T07:18:39.376Z,20.00
2023-01-08T07:19:40.221Z,20.00
2023-01-08T07:20:41.088Z,20.00
2023-01-08T07:21:41.952Z,20.00
2023-01-08T07:22:42.748Z,24.00
2023-01-08T07:23:43.582Z,20.00
2023-01-08T07:24:44.433Z,20.00
2023-01-08T07:25:45.289Z,24.00
2023-01-08T07:26:46.141Z,28.00
2023-01-08T07:27:46.995Z,28.00
2023-01-08T07:28:47.846Z,28.00
2023-01-08T07:29:48.714Z,28.00
2023-01-08T07:30:49.869Z,28.00
2023-01-08T07:31:50.242Z,24.00
2023-01-08T07:32:51.221Z,24.00
2023-01-08T07:33:52.001Z,20.00
2023-01-08T07:34:52.855Z,20.00
2023-01-08T07:35:53.736Z,16.00
2023-01-08T07:36:54.612Z,16.00
2023-01-08T07:37:55.413Z,20.00
2023-01-08T07:38:56.262Z,28.00
2023-01-08T07:39:57.111Z,36.00
2023-01-08T07:40:57.971Z,48.00
2023-01-08T07:41:58.821Z,52.00
2023-01-08T07:42:59.676Z,60.00
2023-01-08T07:44:00.527Z,64.00
2023-01-08T07:45:01.380Z,68.00
2023-01-08T07:46:02.376Z,72.00
2023-01-08T07:47:02.725Z,68.00
2023-01-08T07:48:03.696Z,64.00
2023-01-08T07:49:04.469Z,60.00
2023-01-08T07:50:05.412Z,68.00
2023-01-08T07:51:06.208Z,80.00
2023-01-08T07:52:07.080Z,96.00
2023-01-08T07:53:07.902Z,108.00
2023-01-08T07:54:08.753Z,124.00
2023-01-08T07:55:09.617Z,136.00
2023-01-08T07:56:10.473Z,152.00
2023-01-08T07:57:11.328Z,172.00
2023-01-08T07:58:12.176Z,188.00
2023-01-08T07:59:13.030Z,204.00
2023-01-08T08:00:13.883Z,208.00
2023-01-08T08:01:14.959Z,208.00
2023-01-08T08:02:15.442Z,212.00
2023-01-08T08:03:15.969Z,224.00
2023-01-08T08:04:16.757Z,232.00
2023-01-08T08:05:17.638Z,252.00
2023-01-08T08:06:19.335Z,272.00
2023-01-08T08:07:19.226Z,292.00
2023-01-08T08:08:20.058Z,312.00
2023-01-08T08:09:20.921Z,332.00
2023-01-08T08:10:21.767Z,348.00
2023-01-08T08:11:22.636Z,356.00
2023-01-08T08:12:23.488Z,352.00
2023-01-08T08:13:24.342Z,352.00
2023-01-08T08:14:25.192Z,352.00
2023-01-08T08:15:26.047Z,356.00
2023-01-08T08:16:27.481Z,364.00
2023-01-08T08:17:27.794Z,376.00
2023-01-08T08:18:28.762Z,384.00
2023-01-08T08:19:29.538Z,396.00
2023-01-08T08:20:30.395Z,428.00
2023-01-08T08:21:31.256Z,456.00
2023-01-08T08:22:32.136Z,484.00
2023-01-08T08:23:35.191Z,520.00
2023-01-08T08:24:33.708Z,556.00
2023-01-08T08:25:34.562Z,580.00
2023-01-08T08:26:35.430Z,592.00
2023-01-08T08:27:36.311Z,600.00
2023-01-08T08:28:37.165Z,596.00
2023-01-08T08:29:38.029Z,604.00
2023-01-08T08:30:41.955Z,628.00
2023-01-08T08:31:39.788Z,680.00
2023-01-08T08:32:40.590Z,752.00
2023-01-08T08:33:41.590Z,832.00
2023-01-08T08:34:42.373Z,904.00
2023-01-08T08:35:43.230Z,968.00
2023-01-08T08:36:44.382Z,1044.00
2023-01-08T08:37:44.821Z,1136.00
2023-01-08T08:38:45.632Z,1172.00
2023-01-08T08:39:46.493Z,1180.00
2023-01-08T08:40:47.356Z,1188.00
2023-01-08T08:41:48.362Z,1204.00
2023-01-08T08:42:48.725Z,1212.00
2023-01-08T08:43:49.578Z,1228.00
2023-01-08T08:44:50.456Z,1260.00
2023-01-08T08:45:51.341Z,1324.00
2023-01-08T08:46:52.274Z,1420.00
2023-01-08T08:47:53.095Z,1548.00
2023-01-08T08:48:54.058Z,1700.00
2023-01-08T08:49:54.834Z,1904.00
2023-01-08T08:50:55.696Z,2152.00
2023-01-08T08:51:56.539Z,2416.00
2023-01-08T08:52:57.407Z,2636.00
2023-01-08T08:53:58.236Z,2728.00
2023-01-08T08:54:59.086Z,2720.00
2023-01-08T08:55:59.938Z,2688.00
2023-01-08T08:57:00.794Z,2608.00
2023-01-08T08:58:01.646Z,2732.00
2023-01-08T08:59:02.497Z,3216.00
2023-01-08T09:00:03.368Z,3604.00
2023-01-08T09:01:04.205Z,3784.00
2023-01-08T09:02:05.305Z,4024.00
2023-01-08T09:03:05.854Z,4264.00
2023-01-08T09:04:06.303Z,4680.00
2023-01-08T09:05:07.088Z,6108.00
2023-01-08T09:06:07.932Z,7112.00
2023-01-08T09:07:08.797Z,5280.00
2023-01-08T09:08:09.660Z,5136.00
2023-01-08T09:09:10.459Z,5360.00
2023-01-08T09:10:11.308Z,6188.00
2023-01-08T09:11:14.325Z,3316.00
2023-01-08T09:12:12.843Z,3196.00
2023-01-08T09:13:13.704Z,3192.00
2023-01-08T09:14:14.535Z,3212.00
2023-01-08T09:15:15.427Z,3352.00
2023-01-08T09:16:16.415Z,3504.00
2023-01-08T09:17:17.230Z,3704.00
2023-01-08T09:18:18.103Z,3696.00
2023-01-08T09:19:19.075Z,3640.00
2023-01-08T09:20:19.861Z,3896.00
2023-01-08T09:21:20.711Z,3980.00
2023-01-08T09:22:21.858Z,4412.00
2023-01-08T09:23:22.229Z,4400.00
2023-01-08T09:24:23.046Z,5008.00
2023-01-08T09:25:23.896Z,5688.00
2023-01-08T09:26:24.744Z,8280.00
2023-01-08T09:27:25.602Z,6684.00
2023-01-08T09:28:26.453Z,6436.00
2023-01-08T09:29:27.320Z,5856.00
2023-01-08T09:30:28.157Z,6748.00
2023-01-08T09:31:29.087Z,7536.00
2023-01-08T09:32:29.900Z,10076.00
2023-01-08T09:33:30.763Z,55232.00
2023-01-08T09:34:31.622Z,53280.00
2023-01-08T09:35:32.464Z,18848.00
2023-01-08T09:36:33.308Z,49376.00
2023-01-08T09:37:34.187Z,44320.00
2023-01-08T09:38:35.054Z,55168.00
2023-01-08T09:39:35.841Z,50560.00
2023-01-08T09:40:36.700Z,52448.00
2023-01-08T09:41:37.553Z,57536.00
2023-01-08T09:42:38.404Z,55840.00
2023-01-08T09:43:39.255Z,52672.00
2023-01-08T09:44:40.117Z,49024.00
2023-01-08T09:45:40.964Z,44992.00
2023-01-08T09:46:41.877Z,50208.00
2023-01-08T09:47:42.697Z,53664.00
2023-01-08T09:48:43.555Z,52160.00
2023-01-08T09:49:44.530Z,58912.00
2023-01-08T09:50:45.438Z,68288.00
2023-01-08T09:51:46.287Z,14428.00
2023-01-08T09:52:47.357Z,17856.00
2023-01-08T09:53:47.725Z,18144.00
2023-01-08T09:54:48.578Z,72288.00
2023-01-08T09:55:53.628Z,78496.00
2023-01-08T09:56:51.202Z,77216.00
2023-01-08T09:57:51.359Z,70304.00
2023-01-08T09:58:51.729Z,68416.00
2023-01-08T09:59:52.582Z,69088.00
2023-01-08T10:00:53.478Z,69600.00
2023-01-08T10:01:54.374Z,68768.00
2023-01-08T10:02:55.254Z,68704.00
2023-01-08T10:03:56.056Z,71936.00
2023-01-08T10:04:57.023Z,72576.00
2023-01-08T10:05:57.834Z,72352.00
2023-01-08T10:06:58.683Z,73376.00
2023-01-08T10:07:59.543Z,71488.00
2023-01-08T10:09:00.433Z,71744.00
2023-01-08T10:10:01.214Z,73248.00
2023-01-08T10:11:02.077Z,68576.00
2023-01-08T10:12:02.934Z,76832.00
2023-01-08T10:13:03.783Z,75936.00
2023-01-08T10:14:04.641Z,69280.00
2023-01-08T10:15:05.504Z,76800.00
2023-01-08T10:16:06.440Z,71808.00
2023-01-08T10:17:11.404Z,74432.00
2023-01-08T10:18:08.058Z,73056.00
2023-01-08T10:19:08.916Z,73856.00
2023-01-08T10:20:09.920Z,78400.00
2023-01-08T10:21:10.717Z,8700.00
2023-01-08T10:22:11.569Z,8232.00
2023-01-08T10:23:12.440Z,7628.00
2023-01-08T10:24:13.303Z,6768.00
2023-01-08T10:25:14.145Z,6004.00
2023-01-08T10:26:14.998Z,5520.00
2023-01-08T10:27:15.846Z,5716.00
2023-01-08T10:28:16.708Z,7212.00
2023-01-08T10:29:17.565Z,40704.00
2023-01-08T10:30:18.436Z,81312.00
2023-01-08T10:31:19.307Z,85088.00
2023-01-08T10:32:20.119Z,51328.00
2023-01-08T10:33:20.989Z,21280.00
2023-01-08T10:34:21.833Z,71520.00
2023-01-08T10:35:22.802Z,75808.00
2023-01-08T10:36:23.581Z,77696.00
2023-01-08T10:37:24.427Z,75456.00
2023-01-08T10:38:25.300Z,70816.00
2023-01-08T10:39:26.174Z,74752.00
2023-01-08T10:40:26.980Z,73600.00
2023-01-08T10:41:27.828Z,72832.00
2023-01-08T10:42:28.682Z,62720.00
2023-01-08T10:43:29.551Z,75008.00
2023-01-08T10:44:30.404Z,62688.00
2023-01-08T10:45:31.271Z,66752.00
2023-01-08T10:46:32.107Z,68832.00
2023-01-08T10:47:32.964Z,73344.00
2023-01-08T10:48:33.823Z,73248.00
2023-01-08T10:49:34.675Z,69472.00
2023-01-08T10:50:35.598Z,70048.00
2023-01-08T10:51:36.402Z,72224.00
2023-01-08T10:52:37.259Z,79040.00
2023-01-08T10:53:38.367Z,75264.00
2023-01-08T10:54:38.760Z,85376.00
2023-01-08T10:55:39.574Z,83584.00
2023-01-08T10:56:40.403Z,86016.00
2023-01-08T10:57:41.249Z,74656.00
2023-01-08T10:58:42.130Z,73664.00
2023-01-08T10:59:42.959Z,73152.00
2023-01-08T11:00:43.829Z,74368.00
2023-01-08T11:01:44.758Z,74208.00
2023-01-08T11:02:45.667Z,74656.00
2023-01-08T11:03:46.866Z,68992.00
2023-01-08T11:04:47.219Z,61664.00
2023-01-08T11:05:48.087Z,61280.00
2023-01-08T11:06:48.920Z,61248.00
2023-01-08T11:07:49.774Z,69152.00
2023-01-08T11:08:51.708Z,68960.00
2023-01-08T11:09:51.615Z,65536.00
2023-01-08T11:10:52.400Z,67168.00
2023-01-08T11:11:53.256Z,68096.00
2023-01-08T11:12:54.104Z,68768.00
2023-01-08T11:13:54.966Z,72064.00
2023-01-08T11:14:55.823Z,68128.00
2023-01-08T11:15:56.727Z,62528.00
2023-01-08T11:16:57.534Z,62048.00
2023-01-08T11:17:58.385Z,70976.00
2023-01-08T11:18:59.249Z,66464.00
2023-01-08T11:20:00.173Z,67008.00
2023-01-08T11:21:00.979Z,70048.00
2023-01-08T11:22:01.803Z,70080.00
2023-01-08T11:23:02.657Z,63392.00
2023-01-08T11:24:03.520Z,62752.00
2023-01-08T11:25:04.393Z,72096.00
2023-01-08T11:26:05.218Z,67200.00
2023-01-08T11:27:06.075Z,66144.00
2023-01-08T11:28:06.921Z,65760.00
2023-01-08T11:29:07.796Z,68608.00
2023-01-08T11:30:08.636Z,72480.00
2023-01-08T11:31:09.495Z,60928.00
2023-01-08T11:32:10.349Z,24800.00
2023-01-08T11:33:11.207Z,25664.00
2023-01-08T11:34:12.369Z,14500.00
2023-01-08T11:35:12.775Z,11652.00
2023-01-08T11:36:14.954Z,10964.00
2023-01-08T11:37:14.358Z,11296.00
2023-01-08T11:38:15.220Z,13196.00
2023-01-08T11:39:16.390Z,11504.00
2023-01-08T11:40:16.764Z,10676.00
2023-01-08T11:41:17.569Z,9652.00
2023-01-08T11:42:18.426Z,9096.00
2023-01-08T11:43:19.279Z,9464.00
2023-01-08T11:44:20.141Z,13368.00
2023-01-08T11:45:21.097Z,63136.00
2023-01-08T11:46:21.955Z,68320.00
2023-01-08T11:47:22.820Z,20768.00
2023-01-08T11:48:23.671Z,35936.00
2023-01-08T11:49:24.525Z,20512.00
2023-01-08T11:50:25.377Z,55424.00
2023-01-08T11:51:26.250Z,58208.00
2023-01-08T11:52:27.081Z,45600.00
2023-01-08T11:53:27.952Z,72576.00
2023-01-08T11:54:28.802Z,60000.00
2023-01-08T11:55:29.668Z,36928.00
2023-01-08T11:56:30.511Z,15680.00
2023-01-08T11:57:31.363Z,14720.00
2023-01-08T11:58:32.216Z,14616.00
2023-01-08T11:59:33.085Z,16896.00
2023-01-08T12:00:33.933Z,34656.00
2023-01-08T12:01:34.840Z,16256.00
2023-01-08T12:02:35.640Z,13672.00
2023-01-08T12:03:36.592Z,12008.00
2023-01-08T12:04:37.458Z,17248.00
2023-01-08T12:05:38.305Z,19008.00
2023-01-08T12:06:39.180Z,11632.00
2023-01-08T12:07:40.014Z,10352.00
2023-01-08T12:08:40.866Z,9928.00
2023-01-08T12:09:41.723Z,8684.00
2023-01-08T12:10:42.592Z,12596.00
2023-01-08T12:11:43.414Z,13424.00
2023-01-08T12:12:44.269Z,11480.00
2023-01-08T12:13:45.119Z,10592.00
2023-01-08T12:14:46.384Z,10564.00
2023-01-08T12:15:46.725Z,9552.00
2023-01-08T12:16:47.646Z,8784.00
2023-01-08T12:17:48.431Z,7900.00
2023-01-08T12:18:49.380Z,7084.00
2023-01-08T12:19:50.380Z,5424.00
2023-01-08T12:20:50.730Z,4956.00
2023-01-08T12:21:51.617Z,4580.00
2023-01-08T12:22:52.445Z,5812.00
2023-01-08T12:23:53.291Z,7088.00
2023-01-08T12:24:54.155Z,6220.00
2023-01-08T12:25:55.031Z,7636.00
2023-01-08T12:26:55.807Z,8232.00
2023-01-08T12:27:57.533Z,7336.00
2023-01-08T12:28:57.431Z,6336.00
2023-01-08T12:29:58.298Z,5996.00
2023-01-08T12:30:59.145Z,6824.00
2023-01-08T12:32:06.507Z,7680.00
2023-01-08T12:33:01.748Z,8624.00
2023-01-08T12:34:01.600Z,8780.00
2023-01-08T12:35:02.475Z,8716.00
2023-01-08T12:36:03.332Z,8092.00
2023-01-08T12:37:04.202Z,9380.00
2023-01-08T12:38:05.033Z,58240.00
2023-01-08T12:39:05.906Z,59264.00
2023-01-08T12:40:06.771Z,52576.00
2023-01-08T12:41:07.671Z,34208.00
2023-01-08T12:42:08.493Z,31136.00
2023-01-08T12:43:09.353Z,52160.00
2023-01-08T12:44:10.257Z,48736.00
2023-01-08T12:45:11.068Z,47072.00
2023-01-08T12:46:11.962Z,45440.00
2023-01-08T12:47:12.813Z,46368.00
2023-01-08T12:48:13.663Z,50208.00
2023-01-08T12:49:14.525Z,47296.00
2023-01-08T12:50:15.879Z,51904.00
2023-01-08T12:51:16.257Z,50080.00
2023-01-08T12:52:17.125Z,42560.00
2023-01-08T12:53:17.989Z,7336.00
2023-01-08T12:54:18.830Z,43840.00
2023-01-08T12:55:19.691Z,40160.00
2023-01-08T12:56:20.575Z,43200.00
2023-01-08T12:57:21.389Z,44384.00
2023-01-08T12:58:22.246Z,42464.00
2023-01-08T12:59:23.095Z,34848.00
2023-01-08T13:00:23.966Z,38432.00
2023-01-08T13:01:24.919Z,38208.00
2023-01-08T13:02:25.898Z,35072.00
2023-01-08T13:03:26.745Z,36544.00
2023-01-08T13:04:27.589Z,20864.00
2023-01-08T13:05:28.455Z,36960.00
2023-01-08T13:06:29.307Z,37120.00
2023-01-08T13:07:30.178Z,36960.00
2023-01-08T13:08:31.020Z,31392.00
2023-01-08T13:09:31.860Z,36384.00
2023-01-08T13:10:32.727Z,28128.00
2023-01-08T13:11:33.605Z,35008.00
2023-01-08T13:12:34.387Z,32832.00
2023-01-08T13:13:35.261Z,5688.00
2023-01-08T13:14:36.093Z,4952.00
2023-01-08T13:15:36.954Z,4644.00
2023-01-08T13:16:37.908Z,5348.00
2023-01-08T13:17:38.702Z,19232.00
2023-01-08T13:18:39.562Z,8408.00
2023-01-08T13:19:41.612Z,31104.00
2023-01-08T13:20:41.053Z,29504.00
2023-01-08T13:21:41.903Z,24672.00
2023-01-08T13:22:42.773Z,6712.00
2023-01-08T13:23:43.603Z,8408.00